createdAt,value
2018-07-01T00:00:51.607Z,29.20
2018-07-01T00:03:19.962Z,29.30
2018-07-01T00:05:48.424Z,29.30
2018-07-01T00:08:16.827Z,29.60
2018-07-01T00:10:45.203Z,30.10
2018-07-01T00:13:13.507Z,29.90
2018-07-01T00:15:41.867Z,30.80
2018-07-01T00:18:10.213Z,30.00
2018-07-01T00:20:38.728Z,30.20
2018-07-01T00:23:07.352Z,29.90
2018-07-01T00:25:35.743Z,30.60
2018-07-01T00:28:04.164Z,30.10
2018-07-01T00:30:32.548Z,30.40
2018-07-01T00:33:00.865Z,30.20
2018-07-01T00:35:30.136Z,30.20
2018-07-01T00:37:58.538Z,30.40
2018-07-01T00:40:26.925Z,30.30
2018-07-01T00:42:55.291Z,30.50
2018-07-01T00:45:23.689Z,31.80
2018-07-01T00:47:52.023Z,31.10
2018-07-01T00:50:20.426Z,30.70
2018-07-01T00:52:48.837Z,30.80
2018-07-01T00:55:17.229Z,30.90
2018-07-01T00:57:45.532Z,31.80
2018-07-01T01:00:13.897Z,30.90
2018-07-01T01:02:42.269Z,30.90
2018-07-01T01:05:10.670Z,31.10
2018-07-01T01:07:39.014Z,31.00
2018-07-01T01:10:07.405Z,31.10
2018-07-01T01:12:35.822Z,31.30
2018-07-01T01:15:04.260Z,31.60
2018-07-01T01:17:32.693Z,31.70
2018-07-01T01:22:29.308Z,32.90
2018-07-01T01:24:57.703Z,32.20
2018-07-01T01:27:26.042Z,32.20
2018-07-01T01:29:54.377Z,32.40
2018-07-01T01:32:22.944Z,32.60
2018-07-01T01:34:51.446Z,32.70
2018-07-01T01:37:19.949Z,32.40
2018-07-01T01:39:48.350Z,32.20
2018-07-01T01:42:22.220Z,32.30
2018-07-01T01:44:56.001Z,32.40
2018-07-01T01:49:32.705Z,32.40
2018-07-01T01:52:04.664Z,32.80
2018-07-01T01:54:38.305Z,33.00
2018-07-01T01:57:13.361Z,32.90
2018-07-01T01:59:47.388Z,32.90
2018-07-01T02:02:22.957Z,32.90
2018-07-01T02:07:34.071Z,32.90
2018-07-01T02:10:02.546Z,33.20
2018-07-01T02:12:30.991Z,33.10
2018-07-01T02:15:03.089Z,33.20
2018-07-01T02:17:35.106Z,33.60
2018-07-01T02:20:03.691Z,33.70
2018-07-01T02:23:08.160Z,33.80
2018-07-01T02:25:37.920Z,34.10
2018-07-01T02:28:06.357Z,33.90
2018-07-01T02:30:34.725Z,34.10
2018-07-01T02:33:03.119Z,33.90
2018-07-01T02:35:31.580Z,33.90
2018-07-01T02:37:59.879Z,33.90
2018-07-01T02:40:28.217Z,34.40
2018-07-01T02:42:56.629Z,34.50
2018-07-01T02:45:25.122Z,34.60
2018-07-01T02:47:53.515Z,34.80
2018-07-01T02:50:21.918Z,34.90
2018-07-01T02:52:50.250Z,35.20
2018-07-01T02:55:18.582Z,35.20
2018-07-01T02:57:46.913Z,35.10
2018-07-01T03:00:15.294Z,35.40
2018-07-01T03:02:43.617Z,35.70
2018-07-01T03:05:11.989Z,35.10
2018-07-01T03:07:40.311Z,35.10
2018-07-01T03:10:08.738Z,35.20
2018-07-01T03:12:37.061Z,34.80
2018-07-01T03:15:05.405Z,35.10
2018-07-01T03:17:33.818Z,35.30
2018-07-01T03:20:03.592Z,35.60
2018-07-01T03:22:31.977Z,35.80
2018-07-01T03:25:00.325Z,36.00
2018-07-01T03:27:28.675Z,36.20
2018-07-01T03:29:57.081Z,36.30
2018-07-01T03:32:25.450Z,36.50
2018-07-01T03:34:53.925Z,36.40
2018-07-01T03:39:50.401Z,36.70
2018-07-01T03:42:18.712Z,36.80
2018-07-01T03:44:47.076Z,36.80
2018-07-01T03:47:15.412Z,37.00
2018-07-01T03:49:43.761Z,37.20
2018-07-01T03:52:12.045Z,37.30
2018-07-01T03:54:40.395Z,37.40
2018-07-01T03:57:08.802Z,37.80
2018-07-01T03:59:37.278Z,37.90
2018-07-01T04:02:05.923Z,38.00
2018-07-01T04:04:34.306Z,38.10
2018-07-01T04:07:02.662Z,38.00
2018-07-01T04:09:33.489Z,38.10
2018-07-01T04:12:02.055Z,38.40
2018-07-01T04:14:30.890Z,38.50
2018-07-01T04:16:59.213Z,38.60
2018-07-01T04:19:35.790Z,38.50
2018-07-01T04:22:05.482Z,38.60
2018-07-01T04:24:34.383Z,38.80
2018-07-01T04:27:02.697Z,38.60
2018-07-01T04:29:31.173Z,38.50
2018-07-01T04:31:59.689Z,38.60
2018-07-01T04:34:28.064Z,38.60
2018-07-01T04:36:56.414Z,38.70
2018-07-01T04:39:25.030Z,38.90
2018-07-01T04:41:53.381Z,39.20
2018-07-01T04:44:21.799Z,39.30
2018-07-01T04:46:50.144Z,39.30
2018-07-01T04:49:18.458Z,39.40
2018-07-01T04:51:46.773Z,39.40
2018-07-01T04:54:15.220Z,39.50
2018-07-01T04:59:13.250Z,39.20
2018-07-01T05:01:41.652Z,39.60
2018-07-01T05:04:10.074Z,39.80
2018-07-01T05:06:38.394Z,39.60
2018-07-01T05:09:10.440Z,39.40
2018-07-01T05:11:39.264Z,39.50
2018-07-01T05:14:07.580Z,39.30
2018-07-01T05:16:36.872Z,39.40
2018-07-01T05:21:33.646Z,39.50
2018-07-01T05:24:02.058Z,41.10
2018-07-01T05:26:30.398Z,40.90
2018-07-01T05:28:58.757Z,39.30
2018-07-01T05:31:27.216Z,39.50
2018-07-01T05:33:56.121Z,41.10
2018-07-01T05:38:53.114Z,40.20
2018-07-01T05:41:21.723Z,38.80
2018-07-01T05:43:50.083Z,39.00
2018-07-01T05:46:18.479Z,39.20
2018-07-01T05:48:46.846Z,38.40
2018-07-01T05:51:15.200Z,38.10
2018-07-01T05:53:43.684Z,38.70
2018-07-01T05:56:12.150Z,38.20
2018-07-01T05:58:40.494Z,38.30
2018-07-01T06:01:08.889Z,38.10
2018-07-01T06:03:37.282Z,38.40
2018-07-01T06:06:05.785Z,37.70
2018-07-01T06:08:34.220Z,37.80
2018-07-01T06:11:02.660Z,38.10
2018-07-01T06:13:31.006Z,37.80
2018-07-01T06:15:59.348Z,38.30
2018-07-01T06:18:27.714Z,37.80
2018-07-01T06:20:56.198Z,38.00
2018-07-01T06:23:24.515Z,38.60
2018-07-01T06:25:52.823Z,39.30
2018-07-01T06:28:21.161Z,37.50
2018-07-01T06:30:49.507Z,37.60
2018-07-01T06:33:17.868Z,37.60
2018-07-01T06:35:46.316Z,38.00
2018-07-01T06:38:14.728Z,38.60
2018-07-01T06:40:43.050Z,38.20
2018-07-01T06:43:11.547Z,38.10
2018-07-01T06:45:39.883Z,37.40
2018-07-01T06:48:08.389Z,38.20
2018-07-01T06:50:36.858Z,38.50
2018-07-01T06:53:05.538Z,37.40
2018-07-01T06:55:33.911Z,36.60
2018-07-01T06:58:02.449Z,36.50
2018-07-01T07:00:30.870Z,36.40
2018-07-01T07:02:59.281Z,36.70
2018-07-01T07:05:27.725Z,37.10
2018-07-01T07:07:56.191Z,37.70
2018-07-01T07:10:24.500Z,37.70
2018-07-01T07:12:52.862Z,36.90
2018-07-01T07:15:21.265Z,37.30
2018-07-01T07:17:49.609Z,36.70
2018-07-01T07:20:18.062Z,37.10
2018-07-01T07:22:46.407Z,37.40
2018-07-01T07:25:15.003Z,36.90
2018-07-01T07:27:43.323Z,36.70
2018-07-01T07:30:11.777Z,36.80
2018-07-01T07:32:40.113Z,35.60
2018-07-01T07:35:08.518Z,36.40
2018-07-01T07:37:37.872Z,36.80
2018-07-01T07:40:06.318Z,36.50
2018-07-01T07:47:31.320Z,35.80
2018-07-01T07:49:59.670Z,35.30
2018-07-01T07:52:28.013Z,34.50
2018-07-01T07:54:56.376Z,36.00
2018-07-01T07:59:53.084Z,34.30
2018-07-01T08:02:22.613Z,35.50
2018-07-01T08:04:50.997Z,34.60
2018-07-01T08:07:19.429Z,33.70
2018-07-01T08:09:47.835Z,35.40
2018-07-01T08:12:16.227Z,33.80
2018-07-01T08:14:44.617Z,33.60
2018-07-01T08:17:13.053Z,33.80
2018-07-01T08:19:41.437Z,35.60
2018-07-01T08:22:09.775Z,35.30
2018-07-01T08:24:38.351Z,34.70
2018-07-01T08:27:07.338Z,33.40
2018-07-01T08:29:35.873Z,33.50
2018-07-01T08:32:04.237Z,34.80
2018-07-01T08:34:32.644Z,34.20
2018-07-01T08:37:01.056Z,33.40
2018-07-01T08:42:35.040Z,33.30
2018-07-01T08:45:05.313Z,33.40
2018-07-01T08:47:34.236Z,33.30
2018-07-01T08:50:02.840Z,32.30
2018-07-01T08:52:31.443Z,32.20
2018-07-01T08:54:59.626Z,32.80
2018-07-01T08:59:56.266Z,32.90
2018-07-01T09:02:24.697Z,33.70
2018-07-01T09:04:53.046Z,33.60
2018-07-01T09:09:50.313Z,32.20
2018-07-01T09:12:18.690Z,33.10
2018-07-01T09:17:15.523Z,32.80
2018-07-01T09:22:12.155Z,31.80
2018-07-01T09:24:40.525Z,31.50
2018-07-01T09:27:08.877Z,31.50
2018-07-01T09:29:43.037Z,32.20
2018-07-01T09:32:11.585Z,32.20
2018-07-01T09:34:39.971Z,31.70
2018-07-01T09:37:08.707Z,31.90
2018-07-01T09:39:37.123Z,31.80
2018-07-01T09:42:05.680Z,32.00
2018-07-01T09:44:34.034Z,32.30
2018-07-01T09:47:02.376Z,32.40
2018-07-01T09:49:30.792Z,32.50
2018-07-01T09:51:59.209Z,32.60
2018-07-01T09:54:27.593Z,33.10
2018-07-01T09:56:55.946Z,32.20
2018-07-01T09:59:24.421Z,32.80
2018-07-01T10:01:52.798Z,32.70
2018-07-01T10:04:21.162Z,31.40
2018-07-01T10:06:49.510Z,31.20
2018-07-01T10:09:17.867Z,32.00
2018-07-01T10:11:46.367Z,32.30
2018-07-01T10:14:14.790Z,31.80
2018-07-01T10:16:43.832Z,31.00
2018-07-01T10:19:12.169Z,31.20
2018-07-01T10:21:40.503Z,30.70
2018-07-01T10:24:08.886Z,31.30
2018-07-01T10:26:37.378Z,30.90
2018-07-01T10:29:09.079Z,31.00
2018-07-01T10:31:38.261Z,30.40
2018-07-01T10:34:07.562Z,29.80
2018-07-01T10:36:36.025Z,30.00
2018-07-01T10:39:12.778Z,29.90
2018-07-01T10:44:09.385Z,30.00
2018-07-01T10:46:37.757Z,30.80
2018-07-01T10:49:06.292Z,30.40
2018-07-01T10:51:35.095Z,29.80
2018-07-01T10:54:03.574Z,29.70
2018-07-01T10:56:32.001Z,29.30
2018-07-01T10:59:00.500Z,28.80
2018-07-01T11:03:57.277Z,28.80
2018-07-01T11:06:26.685Z,28.90
2018-07-01T11:08:55.057Z,28.80
2018-07-01T11:11:23.454Z,28.50
2018-07-01T11:13:51.885Z,29.10
2018-07-01T11:16:20.270Z,29.10
2018-07-01T11:18:48.722Z,28.80
2018-07-01T11:21:17.060Z,28.90
2018-07-01T11:23:45.403Z,28.70
2018-07-01T11:26:13.810Z,28.20
2018-07-01T11:28:42.206Z,27.80
2018-07-01T11:31:10.630Z,27.90
2018-07-01T11:33:38.982Z,28.00
2018-07-01T11:36:07.372Z,27.40
2018-07-01T11:38:35.763Z,27.80
2018-07-01T11:41:04.129Z,27.60
2018-07-01T11:43:32.538Z,27.50
2018-07-01T11:46:00.912Z,27.40
2018-07-01T11:50:57.509Z,27.70
2018-07-01T11:53:25.908Z,26.80
2018-07-01T11:55:54.307Z,27.20
2018-07-01T11:58:23.145Z,27.30
2018-07-01T12:00:51.649Z,26.70
2018-07-01T12:03:19.987Z,26.90
2018-07-01T12:05:48.398Z,27.00
2018-07-01T12:08:16.786Z,27.00
2018-07-01T12:10:45.154Z,26.50
2018-07-01T12:13:13.483Z,26.80
2018-07-01T12:15:41.856Z,26.70
2018-07-01T12:18:10.257Z,26.50
2018-07-01T12:20:38.612Z,27.00
2018-07-01T12:23:06.985Z,27.10
2018-07-01T12:30:31.845Z,26.20
2018-07-01T12:33:00.220Z,26.20
2018-07-01T12:35:28.655Z,26.20
2018-07-01T12:37:57.000Z,26.40
2018-07-01T12:40:25.464Z,26.40
2018-07-01T12:42:53.924Z,25.90
2018-07-01T12:45:22.269Z,26.00
2018-07-01T12:47:50.710Z,26.00
2018-07-01T12:50:19.086Z,26.70
2018-07-01T12:52:47.442Z,26.20
2018-07-01T12:55:15.797Z,26.00
2018-07-01T12:57:44.155Z,26.00
2018-07-01T13:00:12.579Z,26.10
2018-07-01T13:02:40.939Z,26.10
2018-07-01T13:05:09.301Z,26.40
2018-07-01T13:10:06.182Z,26.60
2018-07-01T13:12:34.639Z,26.00
2018-07-01T13:15:03.081Z,25.90
2018-07-01T13:17:31.474Z,26.20
2018-07-01T13:19:59.892Z,26.00
2018-07-01T13:22:28.280Z,25.90
2018-07-01T13:24:56.664Z,25.90
2018-07-01T13:27:25.028Z,25.80
2018-07-01T13:29:53.358Z,25.60
2018-07-01T13:32:21.717Z,25.30
2018-07-01T13:34:50.082Z,25.80
2018-07-01T13:37:18.409Z,25.00
2018-07-01T13:39:46.789Z,25.40
2018-07-01T13:42:15.123Z,25.10
2018-07-01T13:44:43.534Z,25.20
2018-07-01T13:47:11.882Z,24.90
2018-07-01T13:49:40.326Z,24.90
2018-07-01T13:52:08.705Z,24.70
2018-07-01T13:54:37.173Z,24.70
2018-07-01T13:57:05.463Z,25.00
2018-07-01T13:59:33.875Z,25.00
2018-07-01T14:02:02.345Z,25.10
2018-07-01T14:04:30.701Z,25.10
2018-07-01T14:06:59.076Z,24.60
2018-07-01T14:09:27.421Z,24.70
2018-07-01T14:11:57.710Z,24.50
2018-07-01T14:14:26.042Z,24.30
2018-07-01T14:16:54.433Z,24.50
2018-07-01T14:19:22.724Z,24.70
2018-07-01T14:21:51.098Z,24.60
2018-07-01T14:24:19.450Z,24.90
2018-07-01T14:26:47.865Z,24.00
2018-07-01T14:29:16.182Z,23.50
2018-07-01T14:31:44.593Z,23.50
2018-07-01T14:34:12.924Z,24.00
2018-07-01T14:36:41.267Z,24.40
2018-07-01T14:39:11.687Z,24.10
2018-07-01T14:41:40.078Z,23.70
2018-07-01T14:44:08.404Z,24.00
2018-07-01T14:46:36.751Z,23.00
2018-07-01T14:51:33.980Z,23.50
2018-07-01T14:54:02.323Z,23.70
2018-07-01T14:56:30.802Z,24.20
2018-07-01T14:58:59.166Z,23.60
2018-07-01T15:01:27.537Z,23.10
2018-07-01T15:03:55.946Z,23.70
2018-07-01T15:06:24.278Z,24.20
2018-07-01T15:08:52.642Z,23.40
2018-07-01T15:11:20.968Z,23.50
2018-07-01T15:13:49.361Z,23.40
2018-07-01T15:16:17.740Z,23.40
2018-07-01T15:18:46.153Z,23.10
2018-07-01T15:21:14.512Z,22.80
2018-07-01T15:23:42.838Z,23.30
2018-07-01T15:26:11.201Z,22.80
2018-07-01T15:28:39.576Z,23.00
2018-07-01T15:31:08.558Z,23.00
2018-07-01T15:36:05.261Z,23.40
2018-07-01T15:38:33.605Z,23.50
2018-07-01T15:41:02.012Z,24.00
2018-07-01T15:43:30.473Z,23.50
2018-07-01T15:45:58.971Z,23.80
2018-07-01T15:48:27.365Z,23.70
2018-07-01T15:50:55.767Z,24.50
2018-07-01T15:53:24.161Z,24.50
2018-07-01T15:55:52.629Z,23.30
2018-07-01T15:58:21.054Z,23.50
2018-07-01T16:00:49.545Z,23.60
2018-07-01T16:03:17.896Z,23.60
2018-07-01T16:05:46.295Z,23.90
2018-07-01T16:08:14.641Z,24.00
2018-07-01T16:10:43.024Z,23.80
2018-07-01T16:13:11.409Z,23.80
2018-07-01T16:15:39.810Z,24.10
2018-07-01T16:18:08.160Z,23.80
2018-07-01T16:20:36.557Z,23.90
2018-07-01T16:23:05.219Z,24.10
2018-07-01T16:25:42.887Z,23.80
2018-07-01T16:28:16.890Z,24.50
2018-07-01T16:30:45.285Z,23.40
2018-07-01T16:35:41.869Z,23.90
2018-07-01T16:38:10.231Z,23.80
2018-07-01T16:40:38.664Z,23.90
2018-07-01T16:43:07.141Z,23.90
2018-07-01T16:45:35.539Z,24.30
2018-07-01T16:48:04.007Z,24.60
2018-07-01T16:50:32.339Z,24.10
2018-07-01T16:53:00.714Z,24.00
2018-07-01T16:55:29.141Z,24.40
2018-07-01T17:00:25.859Z,23.40
2018-07-01T17:02:54.200Z,24.20
2018-07-01T17:05:22.702Z,24.60
2018-07-01T17:07:51.175Z,24.20
2018-07-01T17:10:19.567Z,23.70
2018-07-01T17:12:47.889Z,24.50
2018-07-01T17:15:16.235Z,24.00
2018-07-01T17:17:44.634Z,23.90
2018-07-01T17:20:12.997Z,23.80
2018-07-01T17:22:41.371Z,23.80
2018-07-01T17:25:09.714Z,23.80
2018-07-01T17:27:38.140Z,24.10
2018-07-01T17:30:06.618Z,23.80
2018-07-01T17:32:40.455Z,23.60
2018-07-01T17:35:08.817Z,23.40
2018-07-01T17:37:37.284Z,23.60
2018-07-01T17:40:05.721Z,23.70
2018-07-01T17:42:36.902Z,23.90
2018-07-01T17:45:05.374Z,23.90
2018-07-01T17:47:33.840Z,23.90
2018-07-01T17:50:02.258Z,24.10
2018-07-01T17:52:30.736Z,24.00
2018-07-01T17:57:27.770Z,23.50
2018-07-01T17:59:56.190Z,23.50
2018-07-01T18:04:52.873Z,24.30
2018-07-01T18:07:21.232Z,23.80
2018-07-01T18:09:49.646Z,24.50
2018-07-01T18:12:18.084Z,24.10
2018-07-01T18:14:46.449Z,24.00
2018-07-01T18:17:15.015Z,24.00
2018-07-01T18:19:43.390Z,24.60
2018-07-01T18:22:14.825Z,23.40
2018-07-01T18:24:53.953Z,24.40
2018-07-01T18:27:09.930Z,24.50
2018-07-01T18:29:38.442Z,25.80
2018-07-01T18:32:07.093Z,26.10
2018-07-01T18:34:35.630Z,26.80
2018-07-01T18:37:04.074Z,26.70
2018-07-01T18:39:32.847Z,26.70
2018-07-01T18:42:01.333Z,27.20
2018-07-01T18:44:29.821Z,27.00
2018-07-01T18:46:58.231Z,27.20
2018-07-01T18:49:26.698Z,27.20
2018-07-01T18:54:23.754Z,27.40
2018-07-01T18:56:52.097Z,28.00
2018-07-01T18:59:20.537Z,27.40
2018-07-01T19:01:48.951Z,27.50
2018-07-01T19:04:17.305Z,27.90
2018-07-01T19:06:45.707Z,27.50
2018-07-01T19:09:14.189Z,28.10
2018-07-01T19:11:42.611Z,27.90
2018-07-01T19:14:11.006Z,27.80
2018-07-01T19:16:39.488Z,27.80
2018-07-01T19:19:07.929Z,28.20
2018-07-01T19:21:36.401Z,28.10
2018-07-01T19:24:05.037Z,28.50
2018-07-01T19:26:33.459Z,28.20
2018-07-01T19:29:01.826Z,28.80
2018-07-01T19:31:30.304Z,28.80
2018-07-01T19:33:58.754Z,28.70
2018-07-01T19:38:55.472Z,29.10
2018-07-01T19:41:23.895Z,29.20
2018-07-01T19:43:52.447Z,29.10
2018-07-01T19:46:20.980Z,29.40
2018-07-01T19:48:49.432Z,29.60
2018-07-01T19:51:17.840Z,29.60
2018-07-01T19:53:46.254Z,30.10
2018-07-01T19:56:14.658Z,29.70
2018-07-01T19:58:43.061Z,29.90
2018-07-01T20:01:11.471Z,29.30
2018-07-01T20:03:39.924Z,29.40
2018-07-01T20:06:08.391Z,29.10
2018-07-01T20:08:36.742Z,29.60
2018-07-01T20:11:05.244Z,29.50
2018-07-01T20:13:33.653Z,29.80
2018-07-01T20:16:02.135Z,29.90
2018-07-01T20:18:30.576Z,30.20
2018-07-01T20:20:58.967Z,29.80
2018-07-01T20:23:27.395Z,30.00
2018-07-01T20:25:55.871Z,30.50
2018-07-01T20:28:24.205Z,30.60
2018-07-01T20:30:52.642Z,31.20
2018-07-01T20:33:20.996Z,31.50
2018-07-01T20:35:49.403Z,30.40
2018-07-01T20:38:18.075Z,30.70
2018-07-01T20:40:46.441Z,30.40
2018-07-01T20:43:14.845Z,30.30
2018-07-01T20:45:43.347Z,30.70
2018-07-01T20:48:11.757Z,30.60
2018-07-01T20:50:40.178Z,30.60
2018-07-01T20:53:08.593Z,30.70
2018-07-01T20:55:37.415Z,31.10
2018-07-01T20:58:05.845Z,30.50
2018-07-01T21:00:34.434Z,31.00
2018-07-01T21:03:02.800Z,30.40
2018-07-01T21:05:31.500Z,30.30
2018-07-01T21:07:59.839Z,30.70
2018-07-01T21:10:28.405Z,31.00
2018-07-01T21:15:25.101Z,31.20
2018-07-01T21:17:53.490Z,31.20
2018-07-01T21:20:21.902Z,31.30
2018-07-01T21:25:18.616Z,31.30
2018-07-01T21:27:47.689Z,32.30
2018-07-01T21:32:44.578Z,32.40
2018-07-01T21:40:09.620Z,31.30
2018-07-01T21:42:38.201Z,31.30
2018-07-01T21:45:07.506Z,31.80
2018-07-01T21:47:36.786Z,32.00
2018-07-01T21:50:05.394Z,32.40
2018-07-01T21:52:33.771Z,32.00
2018-07-01T21:55:02.150Z,31.40
2018-07-01T21:57:30.575Z,31.70
2018-07-01T21:59:58.981Z,31.60
2018-07-01T22:02:27.430Z,32.10
2018-07-01T22:04:55.895Z,32.30
2018-07-01T22:07:24.282Z,32.20
2018-07-01T22:09:52.713Z,32.90
2018-07-01T22:12:37.932Z,32.80
2018-07-01T22:15:25.311Z,32.80
2018-07-01T22:17:54.380Z,32.70
2018-07-01T22:20:22.770Z,33.30
2018-07-01T22:22:51.138Z,33.40
2018-07-01T22:25:19.578Z,33.40
2018-07-01T22:27:47.908Z,33.80
2018-07-01T22:30:16.286Z,33.70
2018-07-01T22:35:12.928Z,33.50
2018-07-01T22:37:41.258Z,33.40
2018-07-01T22:40:09.674Z,33.80
2018-07-01T22:42:38.037Z,34.10
2018-07-01T22:45:06.519Z,34.70
2018-07-01T22:47:34.928Z,34.80
2018-07-01T22:50:03.308Z,34.70
2018-07-01T22:54:59.986Z,35.00
2018-07-01T22:57:28.406Z,35.30
2018-07-01T22:59:56.907Z,35.40
2018-07-01T23:03:16.067Z,35.30
2018-07-01T23:05:44.494Z,35.70
2018-07-01T23:08:12.901Z,36.30
2018-07-01T23:10:41.311Z,37.30
2018-07-01T23:13:09.928Z,37.60
2018-07-01T23:15:38.316Z,37.60
2018-07-01T23:18:06.677Z,37.80
2018-07-01T23:20:35.060Z,38.10
2018-07-01T23:23:03.506Z,38.50
2018-07-01T23:25:31.813Z,38.80
2018-07-01T23:28:00.131Z,38.80
2018-07-01T23:30:28.449Z,38.90
2018-07-01T23:32:56.746Z,39.60
2018-07-01T23:35:25.085Z,39.70
2018-07-01T23:37:53.449Z,40.00
2018-07-01T23:40:21.931Z,39.00
2018-07-01T23:42:50.252Z,38.50
2018-07-01T23:45:18.595Z,38.00
2018-07-01T23:47:46.915Z,37.90
2018-07-01T23:50:15.258Z,36.80
2018-07-01T23:52:43.586Z,37.50
2018-07-01T23:55:12.031Z,36.00
2018-07-01T23:57:40.333Z,35.70
